sensor_id;sensor_type;location;lat;lon;timestamp;pressure;altitude;pressure_sealevel;temperature;humidity
50364;BME280;36272;59.400;17.982;2023-06-14T00:37:15;101937.78;;;16.99;48.57
50364;BME280;36272;59.400;17.982;2023-06-14T00:42:27;101928.69;;;16.93;48.88
50364;BME280;36272;59.400;17.982;2023-06-14T00:47:30;101935.75;;;16.94;48.95
50364;BME280;36272;59.400;17.982;2023-06-14T00:52:37;101942.59;;;16.97;49.38
50364;BME280;36272;59.400;17.982;2023-06-14T00:57:39;101954.66;;;16.94;48.96
50364;BME280;36272;59.400;17.982;2023-06-14T01:39:48;101935.56;;;16.29;51.21
50364;BME280;36272;59.400;17.982;2023-06-14T01:50:59;101942.34;;;16.20;51.21
50364;BME280;36272;59.400;17.982;2023-06-14T01:56:22;101934.69;;;16.17;51.54
50364;BME280;36272;59.400;17.982;2023-06-14T02:14:45;101950.53;;;16.13;51.72
50364;BME280;36272;59.400;17.982;2023-06-14T02:20:07;101929.53;;;16.15;52.64
50364;BME280;36272;59.400;17.982;2023-06-14T02:25:47;101930.94;;;16.18;52.92
50364;BME280;36272;59.400;17.982;2023-06-14T02:30:49;101947.28;;;16.23;52.60
50364;BME280;36272;59.400;17.982;2023-06-14T02:36:08;101932.97;;;16.23;53.49
50364;BME280;36272;59.400;17.982;2023-06-14T02:41:15;101936.94;;;16.20;53.87
50364;BME280;36272;59.400;17.982;2023-06-14T02:59:22;101953.38;;;16.18;54.68
50364;BME280;36272;59.400;17.982;2023-06-14T03:04:55;101956.22;;;16.24;55.12
50364;BME280;36272;59.400;17.982;2023-06-14T03:34:00;101972.19;;;16.37;55.20
50364;BME280;36272;59.400;17.982;2023-06-14T03:39:02;101981.00;;;16.44;55.72
50364;BME280;36272;59.400;17.982;2023-06-14T03:44:24;101968.13;;;16.58;56.06
50364;BME280;36272;59.400;17.982;2023-06-14T03:49:30;101964.75;;;16.87;53.24
50364;BME280;36272;59.400;17.982;2023-06-14T03:54:32;101985.31;;;16.76;55.04
50364;BME280;36272;59.400;17.982;2023-06-14T03:59:34;101990.84;;;16.81;55.58
50364;BME280;36272;59.400;17.982;2023-06-14T04:04:36;101980.63;;;16.83;55.83
50364;BME280;36272;59.400;17.982;2023-06-14T04:09:51;101965.34;;;16.89;56.17
50364;BME280;36272;59.400;17.982;2023-06-14T04:14:53;101987.47;;;16.98;56.31
50364;BME280;36272;59.400;17.982;2023-06-14T04:19:55;101992.50;;;17.06;56.21
50364;BME280;36272;59.400;17.982;2023-06-14T04:25:00;101988.78;;;17.19;56.31
50364;BME280;36272;59.400;17.982;2023-06-14T04:30:02;101977.56;;;17.27;56.89
50364;BME280;36272;59.400;17.982;2023-06-14T04:35:07;101955.59;;;17.35;56.91
50364;BME280;36272;59.400;17.982;2023-06-14T04:40:15;101951.09;;;17.53;56.88
50364;BME280;36272;59.400;17.982;2023-06-14T04:45:16;101963.03;;;17.69;56.38
50364;BME280;36272;59.400;17.982;2023-06-14T04:50:36;101954.84;;;17.93;56.59
50364;BME280;36272;59.400;17.982;2023-06-14T04:55:38;101973.63;;;18.11;56.42
50364;BME280;36272;59.400;17.982;2023-06-14T05:00:39;101973.34;;;18.25;56.26
50364;BME280;36272;59.400;17.982;2023-06-14T05:05:45;101972.78;;;18.40;56.19
50364;BME280;36272;59.400;17.982;2023-06-14T05:10:47;101971.72;;;18.58;56.86
50364;BME280;36272;59.400;17.982;2023-06-14T05:15:48;101974.25;;;18.82;56.42
50364;BME280;36272;59.400;17.982;2023-06-14T05:20:50;101976.56;;;19.07;56.57
50364;BME280;36272;59.400;17.982;2023-06-14T05:26:24;101966.72;;;19.40;55.92
50364;BME280;36272;59.400;17.982;2023-06-14T05:31:41;101980.31;;;19.68;55.24
50364;BME280;36272;59.400;17.982;2023-06-14T05:36:43;101974.66;;;19.91;53.95
50364;BME280;36272;59.400;17.982;2023-06-14T05:41:44;101986.56;;;20.13;53.08
50364;BME280;36272;59.400;17.982;2023-06-14T05:46:46;101984.56;;;20.30;51.49
50364;BME280;36272;59.400;17.982;2023-06-14T05:51:48;101986.66;;;20.50;51.19
50364;BME280;36272;59.400;17.982;2023-06-14T05:56:52;101981.91;;;20.73;52.06
50364;BME280;36272;59.400;17.982;2023-06-14T06:02:23;101970.72;;;20.97;52.07
50364;BME280;36272;59.400;17.982;2023-06-14T06:07:26;101975.13;;;21.14;51.39
50364;BME280;36272;59.400;17.982;2023-06-14T06:12:32;101983.38;;;21.29;51.19
50364;BME280;36272;59.400;17.982;2023-06-14T06:17:41;101974.44;;;21.39;50.91
50364;BME280;36272;59.400;17.982;2023-06-14T06:22:43;101990.81;;;21.44;50.49
50364;BME280;36272;59.400;17.982;2023-06-14T06:27:50;102004.72;;;21.53;50.89
50364;BME280;36272;59.400;17.982;2023-06-14T06:32:52;101998.50;;;21.58;50.94
50364;BME280;36272;59.400;17.982;2023-06-14T06:37:55;102001.00;;;21.64;51.05
50364;BME280;36272;59.400;17.982;2023-06-14T06:43:07;102015.47;;;21.80;50.73
50364;BME280;36272;59.400;17.982;2023-06-14T06:48:12;102009.00;;;21.97;50.47
50364;BME280;36272;59.400;17.982;2023-06-14T06:53:17;102018.56;;;22.10;50.40
50364;BME280;36272;59.400;17.982;2023-06-14T06:58:19;102019.41;;;22.26;50.38
50364;BME280;36272;59.400;17.982;2023-06-14T07:03:25;102014.28;;;22.55;49.90
50364;BME280;36272;59.400;17.982;2023-06-14T07:08:28;102012.38;;;22.92;49.21
50364;BME280;36272;59.400;17.982;2023-06-14T07:13:32;102003.03;;;23.24;46.12
50364;BME280;36272;59.400;17.982;2023-06-14T07:18:44;102003.78;;;23.51;45.61
50364;BME280;36272;59.400;17.982;2023-06-14T07:23:52;102002.00;;;23.75;45.45
50364;BME280;36272;59.400;17.982;2023-06-14T07:28:54;102014.53;;;23.87;44.56
50364;BME280;36272;59.400;17.982;2023-06-14T07:33:56;102012.56;;;24.03;43.65
50364;BME280;36272;59.400;17.982;2023-06-14T07:38:58;102015.50;;;24.12;42.18
50364;BME280;36272;59.400;17.982;2023-06-14T07:44:00;102000.16;;;24.16;40.88
50364;BME280;36272;59.400;17.982;2023-06-14T07:49:02;102000.66;;;24.23;39.75
50364;BME280;36272;59.400;17.982;2023-06-14T07:54:06;102000.84;;;24.37;39.49
50364;BME280;36272;59.400;17.982;2023-06-14T07:59:09;101998.03;;;24.47;38.88
50364;BME280;36272;59.400;17.982;2023-06-14T08:04:14;101989.75;;;24.58;38.75
50364;BME280;36272;59.400;17.982;2023-06-14T08:09:19;101973.56;;;24.61;38.52
50364;BME280;36272;59.400;17.982;2023-06-14T08:14:21;101997.81;;;24.73;38.72
50364;BME280;36272;59.400;17.982;2023-06-14T08:19:26;101975.38;;;24.76;38.28
50364;BME280;36272;59.400;17.982;2023-06-14T08:24:28;102010.00;;;24.91;38.66
50364;BME280;36272;59.400;17.982;2023-06-14T08:29:30;101997.59;;;24.99;39.09
50364;BME280;36272;59.400;17.982;2023-06-14T08:34:32;101988.16;;;25.11;40.01
50364;BME280;36272;59.400;17.982;2023-06-14T08:39:39;101974.34;;;25.21;40.66
50364;BME280;36272;59.400;17.982;2023-06-14T08:44:43;101990.00;;;25.39;40.96
50364;BME280;36272;59.400;17.982;2023-06-14T08:49:46;101974.22;;;25.56;41.08
50364;BME280;36272;59.400;17.982;2023-06-14T08:54:48;101987.94;;;25.75;41.44
50364;BME280;36272;59.400;17.982;2023-06-14T08:59:53;101991.28;;;25.91;41.00
50364;BME280;36272;59.400;17.982;2023-06-14T09:04:56;101993.50;;;26.08;41.02
50364;BME280;36272;59.400;17.982;2023-06-14T09:10:08;101975.25;;;26.36;40.87
50364;BME280;36272;59.400;17.982;2023-06-14T09:15:11;101983.66;;;26.59;40.78
50364;BME280;36272;59.400;17.982;2023-06-14T09:20:13;101981.47;;;26.75;40.37
50364;BME280;36272;59.400;17.982;2023-06-14T09:25:19;101983.03;;;26.95;40.00
50364;BME280;36272;59.400;17.982;2023-06-14T09:30:21;101973.91;;;27.14;39.87
50364;BME280;36272;59.400;17.982;2023-06-14T09:35:22;101972.78;;;27.29;39.25
50364;BME280;36272;59.400;17.982;2023-06-14T09:40:24;101972.56;;;27.53;39.38
50364;BME280;36272;59.400;17.982;2023-06-14T09:45:26;101970.34;;;27.78;38.78
50364;BME280;36272;59.400;17.982;2023-06-14T09:50:30;101977.69;;;28.05;39.03
50364;BME280;36272;59.400;17.982;2023-06-14T09:55:35;101964.47;;;28.30;38.53
50364;BME280;36272;59.400;17.982;2023-06-14T10:00:39;101967.38;;;28.57;38.68
50364;BME280;36272;59.400;17.982;2023-06-14T10:05:45;101966.59;;;28.88;38.15
50364;BME280;36272;59.400;17.982;2023-06-14T10:10:48;101975.09;;;29.18;38.14
50364;BME280;36272;59.400;17.982;2023-06-14T10:16:12;101973.09;;;29.50;37.52
50364;BME280;36272;59.400;17.982;2023-06-14T10:21:23;101968.06;;;29.61;37.34
50364;BME280;36272;59.400;17.982;2023-06-14T10:26:27;101978.47;;;29.73;36.50
50364;BME280;36272;59.400;17.982;2023-06-14T10:31:43;101957.88;;;29.96;36.69
50364;BME280;36272;59.400;17.982;2023-06-14T10:36:45;101976.50;;;30.26;36.41
50364;BME280;36272;59.400;17.982;2023-06-14T10:41:54;101965.41;;;30.61;36.25
50364;BME280;36272;59.400;17.982;2023-06-14T10:46:58;101961.34;;;31.06;35.76
50364;BME280;36272;59.400;17.982;2023-06-14T10:52:02;101952.31;;;31.48;34.96
50364;BME280;36272;59.400;17.982;2023-06-14T10:57:06;101960.94;;;31.89;34.46
50364;BME280;36272;59.400;17.982;2023-06-14T11:13:09;101972.16;;;32.97;33.29
50364;BME280;36272;59.400;17.982;2023-06-14T11:18:11;101960.91;;;33.84;32.34
50364;BME280;36272;59.400;17.982;2023-06-14T11:23:13;101969.91;;;37.44;29.31
50364;BME280;36272;59.400;17.982;2023-06-14T11:28:15;101957.56;;;40.32;26.84
50364;BME280;36272;59.400;17.982;2023-06-14T11:33:17;101949.41;;;41.95;25.48
50364;BME280;36272;59.400;17.982;2023-06-14T11:38:22;101957.31;;;43.02;24.80
50364;BME280;36272;59.400;17.982;2023-06-14T11:43:27;101946.09;;;43.92;24.35
50364;BME280;36272;59.400;17.982;2023-06-14T11:48:41;101941.56;;;45.67;23.29
50364;BME280;36272;59.400;17.982;2023-06-14T11:53:43;101954.56;;;46.60;22.38
50364;BME280;36272;59.400;17.982;2023-06-14T11:58:45;101961.75;;;46.77;22.50
50364;BME280;36272;59.400;17.982;2023-06-14T12:03:50;101941.88;;;47.62;21.49
50364;BME280;36272;59.400;17.982;2023-06-14T12:08:55;101939.25;;;46.44;22.38
50364;BME280;36272;59.400;17.982;2023-06-14T12:13:57;101956.25;;;47.81;21.27
50364;BME280;36272;59.400;17.982;2023-06-14T12:19:16;101934.03;;;48.41;20.99
50364;BME280;36272;59.400;17.982;2023-06-14T12:24:18;101943.72;;;48.17;20.83
50364;BME280;36272;59.400;17.982;2023-06-14T12:29:20;101938.66;;;49.55;20.05
50364;BME280;36272;59.400;17.982;2023-06-14T12:34:21;101943.19;;;50.49;19.81
50364;BME280;36272;59.400;17.982;2023-06-14T12:39:23;101941.25;;;50.83;19.67
50364;BME280;36272;59.400;17.982;2023-06-14T12:44:25;101938.97;;;51.49;19.10
50364;BME280;36272;59.400;17.982;2023-06-14T12:49:27;101938.13;;;52.07;18.83
50364;BME280;36272;59.400;17.982;2023-06-14T12:54:29;101934.97;;;52.59;18.50
50364;BME280;36272;59.400;17.982;2023-06-14T12:59:30;101940.09;;;52.85;18.27
50364;BME280;36272;59.400;17.982;2023-06-14T13:04:34;101925.50;;;53.13;17.99
50364;BME280;36272;59.400;17.982;2023-06-14T13:09:36;101918.88;;;53.36;18.03
50364;BME280;36272;59.400;17.982;2023-06-14T13:14:40;101913.38;;;53.54;18.20
50364;BME280;36272;59.400;17.982;2023-06-14T13:19:44;101922.22;;;53.35;17.83
50364;BME280;36272;59.400;17.982;2023-06-14T13:24:45;101902.53;;;53.78;18.39
50364;BME280;36272;59.400;17.982;2023-06-14T13:29:47;101923.13;;;53.47;18.29
50364;BME280;36272;59.400;17.982;2023-06-14T13:34:48;101904.81;;;53.18;18.61
50364;BME280;36272;59.400;17.982;2023-06-14T13:39:50;101920.22;;;52.90;18.45
50364;BME280;36272;59.400;17.982;2023-06-14T13:44:52;101913.88;;;53.16;18.34
50364;BME280;36272;59.400;17.982;2023-06-14T13:49:54;101912.34;;;53.36;17.98
50364;BME280;36272;59.400;17.982;2023-06-14T13:54:56;101911.81;;;53.52;17.51
50364;BME280;36272;59.400;17.982;2023-06-14T13:59:57;101901.53;;;53.25;17.59
50364;BME280;36272;59.400;17.982;2023-06-14T14:05:02;101908.19;;;53.16;17.72
50364;BME280;36272;59.400;17.982;2023-06-14T14:10:04;101899.84;;;52.98;18.08
50364;BME280;36272;59.400;17.982;2023-06-14T14:15:06;101897.59;;;53.02;17.74
50364;BME280;36272;59.400;17.982;2023-06-14T14:20:14;101887.72;;;53.03;17.94
50364;BME280;36272;59.400;17.982;2023-06-14T14:25:17;101903.38;;;52.92;17.74
50364;BME280;36272;59.400;17.982;2023-06-14T14:30:18;101893.06;;;52.80;17.24
50364;BME280;36272;59.400;17.982;2023-06-14T14:35:24;101895.22;;;52.55;17.58
50364;BME280;36272;59.400;17.982;2023-06-14T14:40:33;101879.66;;;52.11;17.99
50364;BME280;36272;59.400;17.982;2023-06-14T14:45:34;101893.19;;;51.53;17.99
50364;BME280;36272;59.400;17.982;2023-06-14T14:50:36;101890.66;;;50.97;18.14
50364;BME280;36272;59.400;17.982;2023-06-14T14:55:37;101892.78;;;50.40;18.52
50364;BME280;36272;59.400;17.982;2023-06-14T15:00:40;101882.94;;;49.58;18.79
50364;BME280;36272;59.400;17.982;2023-06-14T15:05:43;101882.31;;;48.81;19.09
50364;BME280;36272;59.400;17.982;2023-06-14T15:10:45;101887.38;;;47.84;19.89
50364;BME280;36272;59.400;17.982;2023-06-14T15:15:51;101877.41;;;47.02;20.33
50364;BME280;36272;59.400;17.982;2023-06-14T15:20:52;101878.41;;;46.23;20.71
50364;BME280;36272;59.400;17.982;2023-06-14T15:25:54;101882.31;;;45.63;20.25
50364;BME280;36272;59.400;17.982;2023-06-14T15:30:56;101881.41;;;44.96;20.79
50364;BME280;36272;59.400;17.982;2023-06-14T15:35:58;101880.38;;;44.22;21.18
50364;BME280;36272;59.400;17.982;2023-06-14T15:40:59;101874.50;;;43.38;21.53
50364;BME280;36272;59.400;17.982;2023-06-14T15:46:04;101876.84;;;42.43;22.55
50364;BME280;36272;59.400;17.982;2023-06-14T15:51:05;101881.50;;;41.58;22.88
50364;BME280;36272;59.400;17.982;2023-06-14T15:56:07;101876.69;;;40.59;23.76
50364;BME280;36272;59.400;17.982;2023-06-14T16:01:08;101884.69;;;39.84;24.00
50364;BME280;36272;59.400;17.982;2023-06-14T16:06:10;101882.13;;;39.25;24.42
50364;BME280;36272;59.400;17.982;2023-06-14T16:11:17;101865.03;;;38.60;25.02
50364;BME280;36272;59.400;17.982;2023-06-14T16:16:18;101881.41;;;38.09;25.34
50364;BME280;36272;59.400;17.982;2023-06-14T16:21:22;101870.06;;;37.53;25.92
50364;BME280;36272;59.400;17.982;2023-06-14T16:26:27;101868.97;;;36.97;26.46
50364;BME280;36272;59.400;17.982;2023-06-14T16:31:29;101862.81;;;36.57;26.62
50364;BME280;36272;59.400;17.982;2023-06-14T16:36:30;101862.56;;;36.15;27.09
50364;BME280;36272;59.400;17.982;2023-06-14T16:41:34;101853.38;;;35.68;27.46
50364;BME280;36272;59.400;17.982;2023-06-14T16:46:37;101850.25;;;35.31;27.35
50364;BME280;36272;59.400;17.982;2023-06-14T16:51:38;101866.13;;;34.94;27.95
50364;BME280;36272;59.400;17.982;2023-06-14T16:56:40;101867.03;;;34.47;28.26
50364;BME280;36272;59.400;17.982;2023-06-14T17:01:42;101865.94;;;34.19;28.72
50364;BME280;36272;59.400;17.982;2023-06-14T17:06:49;101845.59;;;33.83;28.99
50364;BME280;36272;59.400;17.982;2023-06-14T17:11:51;101849.56;;;33.54;28.88
50364;BME280;36272;59.400;17.982;2023-06-14T17:16:53;101856.19;;;33.36;28.97
50364;BME280;36272;59.400;17.982;2023-06-14T17:21:54;101847.16;;;33.11;29.79
50364;BME280;36272;59.400;17.982;2023-06-14T17:26:57;101836.13;;;32.86;29.98
50364;BME280;36272;59.400;17.982;2023-06-14T17:31:58;101848.81;;;32.62;29.94
50364;BME280;36272;59.400;17.982;2023-06-14T17:37:02;101838.50;;;32.26;30.33
50364;BME280;36272;59.400;17.982;2023-06-14T17:42:14;101830.78;;;31.94;29.99
50364;BME280;36272;59.400;17.982;2023-06-14T17:53:41;101844.31;;;30.90;31.74
50364;BME280;36272;59.400;17.982;2023-06-14T17:58:43;101847.91;;;30.51;32.42
50364;BME280;36272;59.400;17.982;2023-06-14T18:04:01;101830.22;;;30.14;32.80
50364;BME280;36272;59.400;17.982;2023-06-14T18:09:03;101857.03;;;29.78;33.60
50364;BME280;36272;59.400;17.982;2023-06-14T18:14:05;101861.75;;;29.51;33.91
50364;BME280;36272;59.400;17.982;2023-06-14T18:19:07;101870.47;;;29.27;33.57
50364;BME280;36272;59.400;17.982;2023-06-14T18:24:08;101873.66;;;29.02;34.10
50364;BME280;36272;59.400;17.982;2023-06-14T18:29:11;101859.03;;;28.75;34.29
50364;BME280;36272;59.400;17.982;2023-06-14T18:34:13;101856.66;;;28.51;34.51
50364;BME280;36272;59.400;17.982;2023-06-14T18:39:14;101864.16;;;28.28;34.54
50364;BME280;36272;59.400;17.982;2023-06-14T18:44:16;101859.66;;;28.09;34.52
50364;BME280;36272;59.400;17.982;2023-06-14T18:49:18;101856.63;;;27.88;35.09
50364;BME280;36272;59.400;17.982;2023-06-14T18:54:20;101865.88;;;27.69;35.31
50364;BME280;36272;59.400;17.982;2023-06-14T18:59:22;101860.66;;;27.45;35.32
50364;BME280;36272;59.400;17.982;2023-06-14T19:04:23;101859.81;;;27.22;35.93
50364;BME280;36272;59.400;17.982;2023-06-14T19:14:37;101873.03;;;26.78;36.74
50364;BME280;36272;59.400;17.982;2023-06-14T19:19:39;101867.63;;;26.58;36.71
50364;BME280;36272;59.400;17.982;2023-06-14T19:29:52;101873.88;;;26.17;37.04
50364;BME280;36272;59.400;17.982;2023-06-14T19:34:54;101884.84;;;25.98;37.12
50364;BME280;36272;59.400;17.982;2023-06-14T19:40:11;101864.41;;;25.76;37.27
50364;BME280;36272;59.400;17.982;2023-06-14T19:45:13;101884.38;;;25.58;37.28
50364;BME280;36272;59.400;17.982;2023-06-14T19:50:15;101885.66;;;25.41;37.78
50364;BME280;36272;59.400;17.982;2023-06-14T19:55:17;101891.44;;;25.20;38.29
50364;BME280;36272;59.400;17.982;2023-06-14T20:00:19;101899.31;;;25.03;38.33
50364;BME280;36272;59.400;17.982;2023-06-14T20:05:21;101906.38;;;24.85;38.48
50364;BME280;36272;59.400;17.982;2023-06-14T20:10:23;101904.34;;;24.66;38.70
50364;BME280;36272;59.400;17.982;2023-06-14T20:15:24;101896.06;;;24.47;38.97
50364;BME280;36272;59.400;17.982;2023-06-14T20:20:31;101880.97;;;24.25;39.34
50364;BME280;36272;59.400;17.982;2023-06-14T20:25:32;101902.13;;;24.09;39.42
50364;BME280;36272;59.400;17.982;2023-06-14T20:30:39;101887.25;;;23.86;39.80
50364;BME280;36272;59.400;17.982;2023-06-14T20:35:41;101907.56;;;23.69;40.31
50364;BME280;36272;59.400;17.982;2023-06-14T20:40:46;101912.88;;;23.50;40.38
50364;BME280;36272;59.400;17.982;2023-06-14T20:45:48;101907.22;;;23.31;40.50
50364;BME280;36272;59.400;17.982;2023-06-14T20:50:50;101909.19;;;23.10;41.12
50364;BME280;36272;59.400;17.982;2023-06-14T20:55:52;101915.53;;;22.90;41.34
50364;BME280;36272;59.400;17.982;2023-06-14T21:00:54;101915.06;;;22.72;41.42
50364;BME280;36272;59.400;17.982;2023-06-14T21:05:58;101906.59;;;22.53;42.07
50364;BME280;36272;59.400;17.982;2023-06-14T21:11:00;101909.88;;;22.34;42.41
50364;BME280;36272;59.400;17.982;2023-06-14T21:16:02;101918.31;;;22.17;42.80
50364;BME280;36272;59.400;17.982;2023-06-14T21:21:04;101914.47;;;21.97;43.10
50364;BME280;36272;59.400;17.982;2023-06-14T21:26:06;101918.81;;;21.78;43.45
50364;BME280;36272;59.400;17.982;2023-06-14T21:31:14;101890.97;;;21.60;43.73
50364;BME280;36272;59.400;17.982;2023-06-14T21:36:17;101918.69;;;21.47;44.41
50364;BME280;36272;59.400;17.982;2023-06-14T21:41:18;101917.28;;;21.29;44.62
50364;BME280;36272;59.400;17.982;2023-06-14T21:46:20;101923.47;;;21.14;44.53
50364;BME280;36272;59.400;17.982;2023-06-14T21:51:22;101923.66;;;20.97;45.14
50364;BME280;36272;59.400;17.982;2023-06-14T21:56:23;101924.38;;;20.82;45.13
50364;BME280;36272;59.400;17.982;2023-06-14T22:01:30;101906.56;;;20.63;45.45
50364;BME280;36272;59.400;17.982;2023-06-14T22:06:32;101927.94;;;20.49;45.54
50364;BME280;36272;59.400;17.982;2023-06-14T22:11:34;101913.72;;;20.37;46.19
50364;BME280;36272;59.400;17.982;2023-06-14T22:16:36;101910.84;;;20.21;46.43
50364;BME280;36272;59.400;17.982;2023-06-14T22:21:53;101899.88;;;20.06;47.07
50364;BME280;36272;59.400;17.982;2023-06-14T22:27:02;101923.66;;;19.94;46.61
50364;BME280;36272;59.400;17.982;2023-06-14T22:32:11;101906.38;;;19.77;47.00
50364;BME280;36272;59.400;17.982;2023-06-14T22:37:12;101928.47;;;19.64;47.30
50364;BME280;36272;59.400;17.982;2023-06-14T22:42:16;101923.41;;;19.51;47.13
50364;BME280;36272;59.400;17.982;2023-06-14T22:47:21;101917.56;;;19.37;47.76
50364;BME280;36272;59.400;17.982;2023-06-14T22:52:25;101931.47;;;19.23;48.35
50364;BME280;36272;59.400;17.982;2023-06-14T22:57:35;101917.47;;;19.09;48.41
50364;BME280;36272;59.400;17.982;2023-06-14T23:02:40;101918.91;;;18.95;49.15
50364;BME280;36272;59.400;17.982;2023-06-14T23:07:42;101927.94;;;18.83;49.23
50364;BME280;36272;59.400;17.982;2023-06-14T23:12:44;101939.69;;;18.72;49.55
50364;BME280;36272;59.400;17.982;2023-06-14T23:17:47;101935.44;;;18.59;49.94
50364;BME280;36272;59.400;17.982;2023-06-14T23:22:51;101930.09;;;18.47;50.10
50364;BME280;36272;59.400;17.982;2023-06-14T23:27:54;101923.69;;;18.36;50.17
50364;BME280;36272;59.400;17.982;2023-06-14T23:33:07;101915.63;;;18.24;50.58
50364;BME280;36272;59.400;17.982;2023-06-14T23:38:09;101928.75;;;18.16;50.39
50364;BME280;36272;59.400;17.982;2023-06-14T23:43:13;101934.00;;;18.05;50.85
50364;BME280;36272;59.400;17.982;2023-06-14T23:48:15;101931.31;;;17.93;51.40
50364;BME280;36272;59.400;17.982;2023-06-14T23:53:17;101933.00;;;17.82;51.28
50364;BME280;36272;59.400;17.982;2023-06-14T23:58:21;101927.41;;;17.72;51.96
